Terminal Aerodrome Forecast
Issued by NWS

Home | Current Version | Previous Version | Text Only | Print | Product List | Glossary On
Versions: 1 2 3 4 5 6 7 8 9 10 11
000
FTUS45 KRIW 201100
TAFRKS
TAF
KRKS 201120Z 2012/2112 23011KT P6SM VCSH BKN040
     FM201900 25013G20KT P6SM BKN050
     FM210800 25020G30KT P6SM BKN040=

USA.gov is the U.S. government's official web portal to all federal, state and local government web resources and services.